createdAt,value
2023-05-19T00:01:31.214Z,100759.97
2023-05-19T00:03:59.549Z,100756.81
2023-05-19T00:06:28.762Z,100754.06
2023-05-19T00:09:06.432Z,100761.03
2023-05-19T00:11:33.825Z,100766.59
2023-05-19T00:14:03.396Z,100759.97
2023-05-19T00:16:30.938Z,100763.91
2023-05-19T00:18:58.854Z,100758.28
2023-05-19T00:21:26.170Z,100753.25
2023-05-19T00:23:52.787Z,100759.81
2023-05-19T00:26:19.464Z,100757.47
2023-05-19T00:28:46.150Z,100750.91
2023-05-19T00:31:15.494Z,100755.72
2023-05-19T00:33:44.881Z,100748.88
2023-05-19T00:36:11.832Z,100736.13
2023-05-19T00:38:39.200Z,100739.06
2023-05-19T00:41:06.662Z,100733.00
2023-05-19T00:43:33.806Z,100727.19
2023-05-19T00:46:00.642Z,100728.31
2023-05-19T00:48:27.394Z,100728.31
2023-05-19T00:50:56.635Z,100731.06
2023-05-19T00:53:24.618Z,100731.66
2023-05-19T00:55:51.320Z,100731.16
2023-05-19T00:58:18.820Z,100721.56
2023-05-19T01:00:45.871Z,100718.81
2023-05-19T01:03:14.622Z,100729.59
2023-05-19T01:05:42.482Z,100723.09
2023-05-19T01:08:09.394Z,100724.16
2023-05-19T01:10:36.539Z,100725.47
2023-05-19T01:13:05.147Z,100726.75
2023-05-19T01:16:04.514Z,100723.72
2023-05-19T01:18:43.269Z,100733.50
2023-05-19T01:21:33.553Z,100733.06
2023-05-19T01:24:18.477Z,100734.31
2023-05-19T01:27:20.403Z,100733.63
2023-05-19T01:30:08.045Z,100727.91
2023-05-19T01:32:36.210Z,100733.47
2023-05-19T01:35:04.606Z,100725.72
2023-05-19T01:37:32.371Z,100733.25
2023-05-19T01:39:59.238Z,100728.59
2023-05-19T01:42:27.455Z,100732.88
2023-05-19T01:44:55.688Z,100728.13
2023-05-19T01:47:22.848Z,100726.81
2023-05-19T01:49:49.483Z,100721.09
2023-05-19T01:52:16.110Z,100727.84
2023-05-19T01:54:45.093Z,100728.16
2023-05-19T01:57:39.093Z,100724.59
2023-05-19T02:00:31.038Z,100736.34
2023-05-19T02:03:39.342Z,100735.13
2023-05-19T02:06:30.471Z,100745.13
2023-05-19T02:09:04.366Z,100738.75
2023-05-19T02:11:41.508Z,100734.19
2023-05-19T02:14:16.580Z,100736.31
2023-05-19T02:16:46.004Z,100738.13
2023-05-19T02:19:33.880Z,100745.78
2023-05-19T02:22:00.612Z,100731.22
2023-05-19T02:24:27.266Z,100738.91
2023-05-19T02:26:54.459Z,100735.31
2023-05-19T02:29:21.582Z,100729.59
2023-05-19T02:31:48.568Z,100722.50
2023-05-19T02:34:15.403Z,100729.59
2023-05-19T02:36:42.822Z,100720.41
2023-05-19T02:39:11.028Z,100718.81
2023-05-19T02:41:38.451Z,100721.47
2023-05-19T02:44:05.707Z,100718.94
2023-05-19T02:46:32.733Z,100718.91
2023-05-19T02:49:00.002Z,100721.38
2023-05-19T02:51:26.662Z,100720.81
2023-05-19T02:53:53.352Z,100720.84
2023-05-19T02:56:20.054Z,100720.75
2023-05-19T02:58:46.794Z,100721.47
2023-05-19T03:01:13.442Z,100722.41
2023-05-19T03:03:40.190Z,100725.63
2023-05-19T03:06:06.934Z,100724.13
2023-05-19T03:08:33.628Z,100730.66
2023-05-19T03:11:00.271Z,100731.91
2023-05-19T03:13:26.971Z,100735.19
2023-05-19T03:15:53.722Z,100735.94
2023-05-19T03:18:20.479Z,100741.03
2023-05-19T03:20:47.172Z,100740.22
2023-05-19T03:23:13.792Z,100744.75
2023-05-19T03:25:40.446Z,100744.91
2023-05-19T03:28:07.110Z,100745.78
2023-05-19T03:30:34.044Z,100742.84
2023-05-19T03:33:01.051Z,100744.44
2023-05-19T03:35:27.868Z,100746.63
2023-05-19T03:37:54.517Z,100752.97
2023-05-19T03:40:21.191Z,100744.00
2023-05-19T03:42:47.803Z,100738.88
2023-05-19T03:45:14.569Z,100733.69
2023-05-19T03:47:41.369Z,100735.16
2023-05-19T03:50:08.351Z,100736.72
2023-05-19T03:52:35.014Z,100734.41
2023-05-19T03:55:01.625Z,100730.88
2023-05-19T03:57:28.397Z,100735.06
2023-05-19T03:59:55.123Z,100734.97
2023-05-19T04:02:21.973Z,100741.34
2023-05-19T04:04:48.849Z,100744.81
2023-05-19T04:07:15.552Z,100748.44
2023-05-19T04:09:42.596Z,100751.66
2023-05-19T04:12:09.495Z,100753.91
2023-05-19T04:14:36.117Z,100754.91
2023-05-19T04:17:02.819Z,100753.44
2023-05-19T04:19:29.608Z,100764.88
2023-05-19T04:21:59.269Z,100765.50
2023-05-19T04:24:25.876Z,100765.38
2023-05-19T04:26:52.675Z,100763.41
2023-05-19T04:29:19.465Z,100766.47
2023-05-19T04:31:46.309Z,100767.84
2023-05-19T04:34:12.971Z,100766.56
2023-05-19T04:36:39.695Z,100768.47
2023-05-19T04:39:06.381Z,100768.00
2023-05-19T04:41:33.680Z,100771.03
2023-05-19T04:44:00.467Z,100771.84
2023-05-19T04:46:27.418Z,100777.56
2023-05-19T04:48:54.123Z,100777.78
2023-05-19T04:51:20.821Z,100780.97
2023-05-19T04:53:47.690Z,100784.19
2023-05-19T04:56:14.336Z,100784.22
2023-05-19T04:58:42.038Z,100791.22
2023-05-19T05:01:08.768Z,100788.84
2023-05-19T05:03:35.626Z,100785.66
2023-05-19T05:06:02.467Z,100784.16
2023-05-19T05:08:29.104Z,100784.34
2023-05-19T05:10:56.019Z,100785.22
2023-05-19T05:13:23.779Z,100782.19
2023-05-19T05:15:51.189Z,100787.63
2023-05-19T05:18:18.637Z,100789.75
2023-05-19T05:20:46.059Z,100791.00
2023-05-19T05:23:13.075Z,100787.22
2023-05-19T05:25:40.575Z,100790.28
2023-05-19T05:28:07.336Z,100792.75
2023-05-19T05:30:34.684Z,100783.91
2023-05-19T05:33:02.245Z,100787.03
2023-05-19T05:35:29.197Z,100789.03
2023-05-19T05:37:55.929Z,100801.91
2023-05-19T05:40:22.639Z,100802.53
2023-05-19T05:42:49.298Z,100796.88
2023-05-19T05:45:16.029Z,100794.28
2023-05-19T05:47:42.994Z,100800.97
2023-05-19T05:50:10.536Z,100801.22
2023-05-19T05:52:38.309Z,100807.50
2023-05-19T05:55:05.733Z,100792.66
2023-05-19T05:57:32.373Z,100794.66
2023-05-19T05:59:59.177Z,100792.63
2023-05-19T06:02:26.219Z,100792.00
2023-05-19T06:04:52.960Z,100794.59
2023-05-19T06:07:20.229Z,100795.03
2023-05-19T06:09:46.883Z,100798.59
2023-05-19T06:12:13.544Z,100804.16
2023-05-19T06:14:40.177Z,100805.19
2023-05-19T06:17:09.276Z,100812.94
2023-05-19T06:19:35.981Z,100814.63
2023-05-19T06:22:02.752Z,100817.03
2023-05-19T06:24:29.470Z,100822.19
2023-05-19T06:26:56.151Z,100823.63
2023-05-19T06:29:22.819Z,100828.78
2023-05-19T06:31:49.626Z,100830.59
2023-05-19T06:34:16.358Z,100819.63
2023-05-19T06:36:43.074Z,100833.72
2023-05-19T06:39:09.731Z,100826.28
2023-05-19T06:41:38.516Z,100834.03
2023-05-19T06:44:07.534Z,100847.34
2023-05-19T06:46:34.326Z,100843.16
2023-05-19T06:49:03.779Z,100851.69
2023-05-19T06:51:30.619Z,100843.97
2023-05-19T06:53:57.342Z,100842.31
2023-05-19T06:56:24.072Z,100844.63
2023-05-19T06:58:50.729Z,100845.81
2023-05-19T07:01:17.407Z,100847.63
2023-05-19T07:03:44.275Z,100850.63
2023-05-19T07:06:11.094Z,100845.47
2023-05-19T07:08:37.783Z,100835.31
2023-05-19T07:11:07.286Z,100845.41
2023-05-19T07:13:33.954Z,100833.75
2023-05-19T07:16:00.780Z,100835.03
2023-05-19T07:18:27.513Z,100834.47
2023-05-19T07:20:54.216Z,100829.72
2023-05-19T07:23:20.962Z,100832.09
2023-05-19T07:25:47.680Z,100830.22
2023-05-19T07:28:14.333Z,100814.56
2023-05-19T07:30:41.095Z,100818.69
2023-05-19T07:33:07.797Z,100817.91
2023-05-19T07:35:34.634Z,100814.56
2023-05-19T07:38:01.321Z,100823.50
2023-05-19T07:40:27.957Z,100824.88
2023-05-19T07:42:54.742Z,100825.59
2023-05-19T07:45:21.509Z,100829.94
2023-05-19T07:47:48.292Z,100820.75
2023-05-19T07:50:14.953Z,100822.22
2023-05-19T07:52:41.585Z,100828.63
2023-05-19T07:55:08.565Z,100827.22
2023-05-19T07:57:35.261Z,100830.88
2023-05-19T08:00:02.081Z,100827.47
2023-05-19T08:02:28.831Z,100815.38
2023-05-19T08:04:55.630Z,100821.00
2023-05-19T08:07:22.401Z,100825.59
2023-05-19T08:09:49.051Z,100819.97
2023-05-19T08:12:15.710Z,100814.03
2023-05-19T08:14:42.442Z,100820.03
2023-05-19T08:17:11.466Z,100812.03
2023-05-19T08:19:38.129Z,100807.13
2023-05-19T08:22:04.982Z,100812.16
2023-05-19T08:24:31.678Z,100810.50
2023-05-19T08:26:59.913Z,100809.91
2023-05-19T08:29:26.600Z,100810.84
2023-05-19T08:31:53.677Z,100820.88
2023-05-19T08:34:20.444Z,100812.06
2023-05-19T08:36:47.089Z,100816.31
2023-05-19T08:39:13.807Z,100817.25
2023-05-19T08:41:40.593Z,100812.25
2023-05-19T08:44:07.427Z,100802.66
2023-05-19T08:46:35.315Z,100796.50
2023-05-19T08:49:05.615Z,100804.53
2023-05-19T08:51:34.688Z,100800.91
2023-05-19T08:54:12.381Z,100791.72
2023-05-19T08:56:39.115Z,100802.41
2023-05-19T08:59:07.020Z,100800.59
2023-05-19T09:01:34.402Z,100799.25
2023-05-19T09:04:01.720Z,100804.34
2023-05-19T09:06:28.946Z,100801.41
2023-05-19T09:08:55.934Z,100801.53
2023-05-19T09:11:22.737Z,100808.94
2023-05-19T09:13:49.713Z,100808.44
2023-05-19T09:16:19.336Z,100808.13
2023-05-19T09:18:57.323Z,100803.63
2023-05-19T09:21:31.214Z,100802.69
2023-05-19T09:23:59.293Z,100800.78
2023-05-19T09:26:36.451Z,100798.19
2023-05-19T09:29:03.280Z,100797.47
2023-05-19T09:31:32.462Z,100801.84
2023-05-19T09:33:59.224Z,100795.28
2023-05-19T09:36:25.856Z,100802.97
2023-05-19T09:38:52.670Z,100797.63
2023-05-19T09:41:19.938Z,100792.44
2023-05-19T09:43:54.683Z,100793.34
2023-05-19T09:46:25.532Z,100799.09
2023-05-19T09:48:57.556Z,100787.16
2023-05-19T09:51:25.087Z,100786.16
2023-05-19T09:53:52.927Z,100783.38
2023-05-19T09:56:19.549Z,100779.53
2023-05-19T09:58:46.259Z,100768.84
2023-05-19T10:01:15.078Z,100778.81
2023-05-19T10:03:42.484Z,100781.63
2023-05-19T10:06:10.117Z,100770.25
2023-05-19T10:08:37.737Z,100773.09
2023-05-19T10:11:05.381Z,100764.53
2023-05-19T10:13:32.079Z,100773.94
2023-05-19T10:16:00.200Z,100761.66
2023-05-19T10:18:27.469Z,100755.41
2023-05-19T10:20:54.496Z,100756.13
2023-05-19T10:23:21.260Z,100756.91
2023-05-19T10:25:49.681Z,100757.78
2023-05-19T10:28:18.765Z,100756.94
2023-05-19T10:30:49.037Z,100754.25
2023-05-19T10:33:18.162Z,100750.97
2023-05-19T10:35:50.586Z,100749.03
2023-05-19T10:38:40.448Z,100749.78
2023-05-19T10:41:27.431Z,100751.53
2023-05-19T10:44:17.744Z,100748.53
2023-05-19T10:46:44.607Z,100744.00
2023-05-19T10:49:20.626Z,100740.72
2023-05-19T10:51:47.362Z,100737.50
2023-05-19T10:54:14.484Z,100730.88
2023-05-19T10:56:43.736Z,100729.72
2023-05-19T10:59:30.826Z,100729.47
2023-05-19T11:01:57.636Z,100727.06
2023-05-19T11:04:47.440Z,100720.50
2023-05-19T11:07:19.314Z,100722.41
2023-05-19T11:09:50.504Z,100715.78
2023-05-19T11:12:21.340Z,100720.25
2023-05-19T11:14:48.266Z,100707.44
2023-05-19T11:17:16.081Z,100706.66
2023-05-19T11:19:53.945Z,100720.09
2023-05-19T11:22:25.226Z,100723.00
2023-05-19T11:24:54.517Z,100714.97
2023-05-19T11:27:26.799Z,100711.38
2023-05-19T11:29:55.437Z,100704.97
2023-05-19T11:32:25.930Z,100707.16
2023-05-19T11:34:52.877Z,100705.13
2023-05-19T11:37:19.507Z,100704.22
2023-05-19T11:39:46.762Z,100701.63
2023-05-19T11:42:13.979Z,100704.31
2023-05-19T11:44:40.861Z,100705.25
2023-05-19T11:47:08.320Z,100708.22
2023-05-19T11:49:35.102Z,100705.53
2023-05-19T11:52:02.317Z,100696.94
2023-05-19T11:54:33.154Z,100698.25
2023-05-19T11:57:01.324Z,100702.88
2023-05-19T11:59:32.265Z,100701.34
2023-05-19T12:02:16.243Z,100699.69
2023-05-19T12:04:43.387Z,100698.06
2023-05-19T12:07:13.700Z,100696.50
2023-05-19T12:09:40.544Z,100695.47
2023-05-19T12:12:07.932Z,100689.53
2023-05-19T12:14:35.663Z,100685.44
2023-05-19T12:17:15.667Z,100685.75
2023-05-19T12:19:46.953Z,100676.78
2023-05-19T12:22:15.278Z,100670.06
2023-05-19T12:24:43.706Z,100677.72
2023-05-19T12:27:25.870Z,100674.03
2023-05-19T12:29:54.710Z,100674.88
2023-05-19T12:32:25.380Z,100674.16
2023-05-19T12:34:53.163Z,100667.84
2023-05-19T12:37:19.950Z,100662.72
2023-05-19T12:39:49.032Z,100658.16
2023-05-19T12:42:16.326Z,100662.13
2023-05-19T12:44:45.371Z,100664.41
2023-05-19T12:47:12.417Z,100665.91
2023-05-19T12:49:59.285Z,100651.84
2023-05-19T12:52:27.697Z,100652.38
2023-05-19T12:55:02.308Z,100654.09
2023-05-19T12:57:33.588Z,100648.06
2023-05-19T13:00:03.586Z,100648.94
2023-05-19T13:02:30.616Z,100644.66
2023-05-19T13:04:59.820Z,100642.09
2023-05-19T13:07:26.647Z,100639.81
2023-05-19T13:09:53.408Z,100649.06
2023-05-19T13:12:20.087Z,100636.94
2023-05-19T13:14:46.846Z,100635.50
2023-05-19T13:17:13.589Z,100629.06
2023-05-19T13:19:40.272Z,100627.56
2023-05-19T13:22:06.992Z,100626.59
2023-05-19T13:24:33.689Z,100620.88
2023-05-19T13:27:00.392Z,100611.41
2023-05-19T13:29:27.017Z,100623.75
2023-05-19T13:31:53.767Z,100617.00
2023-05-19T13:34:20.465Z,100610.03
2023-05-19T13:36:47.076Z,100611.66
2023-05-19T13:39:14.097Z,100611.50
2023-05-19T13:41:40.749Z,100604.63
2023-05-19T13:44:07.485Z,100598.00
2023-05-19T13:46:44.600Z,100595.44
2023-05-19T13:49:12.662Z,100596.78
2023-05-19T13:51:42.277Z,100600.91
2023-05-19T13:54:08.965Z,100598.94
2023-05-19T13:56:36.268Z,100597.19
2023-05-19T13:59:03.433Z,100599.22
2023-05-19T14:01:30.182Z,100587.19
2023-05-19T14:03:57.196Z,100591.81
2023-05-19T14:06:24.150Z,100589.25
2023-05-19T14:08:50.850Z,100586.09
2023-05-19T14:11:20.939Z,100581.41
2023-05-19T14:13:50.567Z,100581.56
2023-05-19T14:16:19.232Z,100591.19
2023-05-19T14:18:46.068Z,100584.53
2023-05-19T14:21:12.841Z,100586.84
2023-05-19T14:23:39.550Z,100583.59
2023-05-19T14:26:06.356Z,100569.84
2023-05-19T14:28:33.199Z,100583.88
2023-05-19T14:30:59.929Z,100578.34
2023-05-19T14:33:26.676Z,100576.09
2023-05-19T14:35:53.498Z,100579.47
2023-05-19T14:38:20.163Z,100579.91
2023-05-19T14:40:46.973Z,100573.03
2023-05-19T14:43:13.858Z,100581.00
2023-05-19T14:45:40.857Z,100577.94
2023-05-19T14:48:08.179Z,100579.53
2023-05-19T14:50:35.052Z,100572.19
2023-05-19T14:53:02.023Z,100574.34
2023-05-19T14:55:28.701Z,100573.03
2023-05-19T14:57:55.471Z,100569.88
2023-05-19T15:00:22.193Z,100571.22
2023-05-19T15:02:51.508Z,100573.66
2023-05-19T15:05:18.164Z,100572.44
2023-05-19T15:07:45.125Z,100570.72
2023-05-19T15:10:12.012Z,100572.00
2023-05-19T15:12:38.698Z,100565.88
2023-05-19T15:15:05.944Z,100563.47
2023-05-19T15:17:32.679Z,100558.50
2023-05-19T15:19:59.614Z,100558.25
2023-05-19T15:22:26.554Z,100553.53
2023-05-19T15:24:53.325Z,100562.56
2023-05-19T15:27:20.101Z,100570.44
2023-05-19T15:29:46.840Z,100573.63
2023-05-19T15:32:13.539Z,100571.41
2023-05-19T15:34:40.200Z,100572.06
2023-05-19T15:37:06.947Z,100572.88
2023-05-19T15:39:33.608Z,100562.88
2023-05-19T15:42:00.355Z,100572.97
2023-05-19T15:44:28.918Z,100571.66
2023-05-19T15:46:55.786Z,100567.53
2023-05-19T15:49:22.573Z,100566.22
2023-05-19T15:51:49.238Z,100570.53
2023-05-19T15:54:15.907Z,100566.78
2023-05-19T15:56:42.563Z,100560.59
2023-05-19T15:59:09.218Z,100569.91
2023-05-19T16:01:36.308Z,100568.97
2023-05-19T16:04:03.092Z,100576.28
2023-05-19T16:06:30.387Z,100576.81
2023-05-19T16:08:57.106Z,100578.34
2023-05-19T16:11:23.954Z,100571.25
2023-05-19T16:13:50.625Z,100570.56
2023-05-19T16:16:17.261Z,100578.00
2023-05-19T16:18:44.202Z,100576.31
2023-05-19T16:21:11.096Z,100577.69
2023-05-19T16:23:37.729Z,100581.53
2023-05-19T16:26:04.459Z,100584.63
2023-05-19T16:28:31.306Z,100584.72
2023-05-19T16:30:58.875Z,100579.34
2023-05-19T16:33:26.396Z,100578.69
2023-05-19T16:35:53.064Z,100576.13
2023-05-19T16:38:19.818Z,100575.47
2023-05-19T16:40:46.572Z,100585.53
2023-05-19T16:43:13.261Z,100575.13
2023-05-19T16:45:42.928Z,100578.66
2023-05-19T16:48:09.851Z,100574.53
2023-05-19T16:50:37.195Z,100571.34
2023-05-19T16:53:04.135Z,100569.94
2023-05-19T16:55:30.779Z,100571.59
2023-05-19T16:57:57.551Z,100580.41
2023-05-19T17:00:24.316Z,100576.63
2023-05-19T17:02:51.055Z,100575.38
2023-05-19T17:05:17.985Z,100584.94
2023-05-19T17:07:44.732Z,100578.22
2023-05-19T17:10:11.566Z,100569.34
2023-05-19T17:12:38.208Z,100574.66
2023-05-19T17:15:05.510Z,100575.28
2023-05-19T17:17:32.273Z,100576.84
2023-05-19T17:19:59.032Z,100572.28
2023-05-19T17:22:26.404Z,100573.06
2023-05-19T17:24:54.224Z,100581.53
2023-05-19T17:27:20.926Z,100581.94
2023-05-19T17:29:47.662Z,100586.19
2023-05-19T17:32:14.367Z,100581.44
2023-05-19T17:34:41.057Z,100579.13
2023-05-19T17:37:07.674Z,100584.84
2023-05-19T17:39:34.383Z,100589.66
2023-05-19T17:42:01.026Z,100587.47
2023-05-19T17:44:27.868Z,100589.97
2023-05-19T17:46:54.699Z,100591.53
2023-05-19T17:49:21.393Z,100592.03
2023-05-19T17:51:48.260Z,100590.34
2023-05-19T17:54:15.430Z,100588.59
2023-05-19T17:56:44.412Z,100583.16
2023-05-19T17:59:11.481Z,100587.47
2023-05-19T18:01:38.451Z,100576.41
2023-05-19T18:04:05.569Z,100574.72
2023-05-19T18:06:32.489Z,100584.94
2023-05-19T18:09:01.048Z,100579.78
2023-05-19T18:11:28.086Z,100577.66
2023-05-19T18:13:54.823Z,100584.94
2023-05-19T18:16:21.594Z,100582.16
2023-05-19T18:18:48.302Z,100584.88
2023-05-19T18:21:15.006Z,100581.31
2023-05-19T18:23:41.817Z,100584.84
2023-05-19T18:26:08.592Z,100587.69
2023-05-19T18:28:35.225Z,100589.31
2023-05-19T18:31:06.009Z,100588.66
2023-05-19T18:33:33.253Z,100586.25
2023-05-19T18:35:59.898Z,100589.28
2023-05-19T18:38:26.782Z,100598.41
2023-05-19T18:40:53.446Z,100597.97
2023-05-19T18:43:20.104Z,100600.13
2023-05-19T18:45:47.360Z,100599.72
2023-05-19T18:48:14.070Z,100595.75
2023-05-19T18:50:40.863Z,100595.75
2023-05-19T18:53:07.520Z,100600.81
2023-05-19T18:55:35.038Z,100594.66
2023-05-19T18:58:02.629Z,100599.13
2023-05-19T19:00:29.295Z,100598.91
2023-05-19T19:02:56.074Z,100597.75
2023-05-19T19:05:22.817Z,100604.19
2023-05-19T19:07:49.507Z,100613.47
2023-05-19T19:10:16.234Z,100603.00
2023-05-19T19:12:42.848Z,100615.31
2023-05-19T19:15:10.090Z,100611.66
2023-05-19T19:17:37.192Z,100618.50
2023-05-19T19:20:04.247Z,100610.50
2023-05-19T19:22:30.993Z,100619.56
2023-05-19T19:24:57.706Z,100618.03
2023-05-19T19:27:24.472Z,100623.19
2023-05-19T19:29:51.221Z,100627.59
2023-05-19T19:32:17.920Z,100627.19
2023-05-19T19:34:44.568Z,100623.47
2023-05-19T19:37:11.248Z,100629.88
2023-05-19T19:39:37.897Z,100621.19
2023-05-19T19:42:04.872Z,100629.31
2023-05-19T19:44:31.520Z,100625.19
2023-05-19T19:46:58.270Z,100623.16
2023-05-19T19:49:24.951Z,100623.03
2023-05-19T19:51:51.693Z,100630.25
2023-05-19T19:54:18.661Z,100629.25
2023-05-19T19:56:45.513Z,100628.19
2023-05-19T19:59:12.148Z,100631.41
2023-05-19T20:01:38.868Z,100629.78
2023-05-19T20:04:05.706Z,100639.47
2023-05-19T20:06:32.422Z,100637.88
2023-05-19T20:08:59.815Z,100635.06
2023-05-19T20:11:26.469Z,100631.41
2023-05-19T20:13:53.506Z,100636.88
2023-05-19T20:16:20.252Z,100637.91
2023-05-19T20:18:47.056Z,100639.53
2023-05-19T20:21:13.787Z,100632.13
2023-05-19T20:23:40.396Z,100633.22
2023-05-19T20:26:12.365Z,100633.56
2023-05-19T20:28:39.990Z,100633.72
2023-05-19T20:31:06.797Z,100623.97
2023-05-19T20:33:33.582Z,100631.19
2023-05-19T20:36:00.458Z,100628.81
2023-05-19T20:38:27.518Z,100634.03
2023-05-19T20:40:54.485Z,100634.03
2023-05-19T20:43:21.123Z,100633.50
2023-05-19T20:45:48.007Z,100634.97
2023-05-19T20:48:14.832Z,100630.94
2023-05-19T20:50:41.463Z,100635.41
2023-05-19T20:53:08.188Z,100632.88
2023-05-19T20:55:35.100Z,100637.44
2023-05-19T20:58:01.983Z,100637.56
2023-05-19T21:00:30.362Z,100629.94
2023-05-19T21:02:57.493Z,100636.59
2023-05-19T21:05:24.723Z,100634.00
2023-05-19T21:07:51.462Z,100637.56
2023-05-19T21:10:18.378Z,100634.75
2023-05-19T21:12:47.869Z,100637.28
2023-05-19T21:15:14.733Z,100640.03
2023-05-19T21:17:41.486Z,100636.63
2023-05-19T21:20:11.992Z,100634.75
2023-05-19T21:22:38.641Z,100618.00
2023-05-19T21:25:05.836Z,100625.34
2023-05-19T21:27:32.474Z,100630.09
2023-05-19T21:29:59.128Z,100626.16
2023-05-19T21:32:25.810Z,100628.03
2023-05-19T21:34:52.528Z,100623.78
2023-05-19T21:37:19.145Z,100625.88
2023-05-19T21:39:45.852Z,100622.31
2023-05-19T21:42:12.597Z,100617.31
2023-05-19T21:44:39.301Z,100618.44
2023-05-19T21:47:05.935Z,100617.13
2023-05-19T21:49:32.603Z,100623.06
2023-05-19T21:51:59.320Z,100620.59
2023-05-19T21:54:26.194Z,100611.97
2023-05-19T21:56:52.824Z,100614.47
2023-05-19T21:59:19.514Z,100606.97
2023-05-19T22:01:46.369Z,100616.22
2023-05-19T22:04:13.077Z,100600.28
2023-05-19T22:06:39.698Z,100599.72
2023-05-19T22:09:06.337Z,100596.69
2023-05-19T22:11:33.090Z,100602.03
2023-05-19T22:13:59.721Z,100607.34
2023-05-19T22:16:26.387Z,100608.66
2023-05-19T22:18:53.133Z,100602.66
2023-05-19T22:21:19.971Z,100602.03
2023-05-19T22:23:46.732Z,100604.69
2023-05-19T22:26:13.362Z,100598.97
2023-05-19T22:28:40.219Z,100605.41
2023-05-19T22:31:06.909Z,100597.03
2023-05-19T22:33:33.521Z,100588.22
2023-05-19T22:36:00.202Z,100588.16
2023-05-19T22:38:26.841Z,100589.25
2023-05-19T22:40:53.608Z,100590.28
2023-05-19T22:43:20.339Z,100578.84
2023-05-19T22:45:47.039Z,100583.81
2023-05-19T22:48:13.883Z,100586.94
2023-05-19T22:50:40.517Z,100583.03
2023-05-19T22:53:07.210Z,100575.84
2023-05-19T22:55:34.283Z,100574.03
2023-05-19T22:58:01.170Z,100568.34
2023-05-19T23:00:27.844Z,100561.28
2023-05-19T23:02:54.760Z,100563.88
2023-05-19T23:05:21.512Z,100559.06
2023-05-19T23:07:48.194Z,100565.09
2023-05-19T23:10:14.933Z,100562.13
2023-05-19T23:12:44.103Z,100564.72
2023-05-19T23:15:10.968Z,100558.63
2023-05-19T23:17:37.946Z,100562.25
2023-05-19T23:20:04.954Z,100567.19
2023-05-19T23:22:31.601Z,100571.69
2023-05-19T23:24:58.457Z,100563.34
2023-05-19T23:27:25.163Z,100564.41
2023-05-19T23:29:51.815Z,100564.16
2023-05-19T23:32:18.563Z,100562.28
2023-05-19T23:34:47.470Z,100567.66
2023-05-19T23:37:14.173Z,100558.97
2023-05-19T23:39:40.770Z,100555.78
2023-05-19T23:42:07.434Z,100555.50
2023-05-19T23:44:34.136Z,100556.28
2023-05-19T23:47:00.865Z,100558.50
2023-05-19T23:49:27.642Z,100550.59
2023-05-19T23:51:54.328Z,100540.97
2023-05-19T23:54:21.002Z,100550.53
2023-05-19T23:56:47.732Z,100542.38
2023-05-19T23:59:14.430Z,100540.06
